Time;durP1;ratioP1;P1;durP2;ratioP2;P2;SDS_P1;SDS_P2;PMS_P1;PMS_P2;Temp;Humidity;BMP_temperature;BMP_pressure;BME280_temperature;BME280_humidity;BME280_pressure;Samples;Min_cycle;Max_cycle;Signal;HPM_P1;HPM_P2
2024/02/14 00:00:53;;;;;;;11.60;5.37;;;4.70;78.60;;;;;;5032746;28;20602;-72
2024/02/14 00:03:20;;;;;;;12.73;5.50;;;4.70;78.40;;;;;;5024369;28;20189;-71
2024/02/14 00:05:45;;;;;;;9.30;5.07;;;4.80;78.40;;;;;;5031398;28;20212;-72
2024/02/14 00:08:13;;;;;;;13.40;5.80;;;4.80;77.80;;;;;;5031254;28;20468;-73
2024/02/14 00:10:39;;;;;;;8.70;5.63;;;4.80;77.60;;;;;;5027684;28;20215;-72
2024/02/14 00:13:05;;;;;;;10.33;5.80;;;4.70;77.80;;;;;;5021770;28;20523;-71
2024/02/14 00:15:30;;;;;;;9.93;4.80;;;4.70;78.10;;;;;;5028509;28;20420;-71
2024/02/14 00:17:56;;;;;;;8.93;4.87;;;4.70;77.80;;;;;;5030681;28;20469;-72
2024/02/14 00:20:22;;;;;;;7.07;4.80;;;4.80;77.70;;;;;;5027006;28;20227;-72
2024/02/14 00:22:47;;;;;;;7.30;4.73;;;4.70;77.60;;;;;;5021657;28;20186;-73
2024/02/14 00:25:13;;;;;;;8.17;5.23;;;4.70;77.60;;;;;;5031083;28;20181;-71
2024/02/14 00:27:39;;;;;;;7.80;4.47;;;4.70;77.70;;;;;;5030578;28;20182;-71
2024/02/14 00:30:06;;;;;;;7.80;4.90;;;4.80;77.70;;;;;;5029996;28;20932;-71
2024/02/14 00:32:31;;;;;;;10.33;4.80;;;4.90;77.10;;;;;;5024935;28;20558;-71
2024/02/14 00:34:57;;;;;;;8.27;5.37;;;5.00;76.80;;;;;;5029924;28;20503;-73
2024/02/14 00:37:23;;;;;;;8.00;5.07;;;5.10;76.50;;;;;;5030312;28;20181;-71
2024/02/14 00:39:50;;;;;;;9.70;5.20;;;5.10;76.20;;;;;;5030159;28;20205;-72
2024/02/14 00:42:15;;;;;;;12.53;4.97;;;5.20;76.20;;;;;;5020721;28;20205;-71
2024/02/14 00:44:41;;;;;;;7.20;3.80;;;5.30;76.10;;;;;;5029356;28;20546;-71
2024/02/14 00:47:07;;;;;;;11.90;4.90;;;5.30;76.10;;;;;;5030437;28;20178;-71
2024/02/14 00:49:36;;;;;;;7.80;4.40;;;5.30;76.20;;;;;;5029953;28;20511;-71
2024/02/14 00:52:02;;;;;;;10.17;5.00;;;5.40;76.10;;;;;;5026179;28;20716;-71
2024/02/14 00:54:27;;;;;;;9.77;4.60;;;5.50;75.70;;;;;;5024841;28;20415;-71
2024/02/14 00:56:53;;;;;;;8.00;4.40;;;5.50;75.40;;;;;;5030159;28;20185;-71
2024/02/14 00:59:18;;;;;;;14.00;5.07;;;5.60;75.20;;;;;;5031038;28;20220;-72
2024/02/14 01:01:44;;;;;;;11.23;3.87;;;5.60;75.10;;;;;;5028454;28;20264;-71
2024/02/14 01:04:10;;;;;;;12.10;4.40;;;5.70;75.10;;;;;;5026569;28;20323;-71
2024/02/14 01:06:36;;;;;;;9.10;4.97;;;5.70;75.10;;;;;;5030039;28;20515;-71
2024/02/14 01:09:03;;;;;;;8.33;4.80;;;5.80;75.20;;;;;;5029911;28;20187;-71
2024/02/14 01:11:28;;;;;;;7.60;4.70;;;5.80;75.70;;;;;;5021504;28;20221;-72
2024/02/14 01:13:54;;;;;;;9.60;5.00;;;5.80;76.10;;;;;;5027163;28;20412;-72
2024/02/14 01:16:20;;;;;;;9.43;4.30;;;5.90;76.70;;;;;;5030452;28;20188;-71
2024/02/14 01:18:45;;;;;;;9.30;4.87;;;5.80;77.30;;;;;;5026270;28;20181;-71
2024/02/14 01:21:11;;;;;;;6.47;4.03;;;5.70;78.00;;;;;;5023245;28;20236;-71
2024/02/14 01:23:36;;;;;;;7.73;4.10;;;5.80;78.30;;;;;;5017876;28;20184;-72
2024/02/14 01:26:02;;;;;;;5.87;4.10;;;5.70;78.90;;;;;;5028754;28;20973;-71
2024/02/14 01:28:28;;;;;;;7.40;4.13;;;5.70;79.20;;;;;;5025131;28;20195;-71
2024/02/14 01:30:53;;;;;;;8.53;4.20;;;5.80;78.90;;;;;;5027461;28;20213;-71
2024/02/14 01:33:19;;;;;;;8.20;4.00;;;5.80;79.00;;;;;;5023851;28;20220;-72
2024/02/14 01:35:45;;;;;;;5.93;3.93;;;5.80;79.00;;;;;;5029852;28;21100;-72
2024/02/14 01:38:12;;;;;;;9.97;4.07;;;5.90;79.30;;;;;;5029989;28;20193;-72
2024/02/14 01:40:38;;;;;;;6.40;4.00;;;6.00;79.00;;;;;;5025109;28;20224;-71
2024/02/14 01:43:04;;;;;;;11.53;4.30;;;6.10;78.40;;;;;;5020312;28;20474;-71
2024/02/14 01:45:29;;;;;;;8.83;3.90;;;6.20;78.30;;;;;;5029205;28;20510;-72
2024/02/14 01:47:56;;;;;;;7.77;4.10;;;6.30;78.00;;;;;;5027253;28;20186;-72
2024/02/14 01:50:28;;;;;;;5.57;3.47;;;6.30;77.60;;;;;;5026745;28;20215;-72
2024/02/14 01:52:56;;;;;;;5.10;3.87;;;6.30;77.80;;;;;;5029833;28;20440;-71
2024/02/14 01:55:21;;;;;;;5.57;3.73;;;6.30;77.40;;;;;;5033068;28;20424;-72
2024/02/14 01:57:47;;;;;;;6.87;4.17;;;6.40;77.30;;;;;;5032764;28;20485;-72
2024/02/14 02:00:16;;;;;;;7.47;4.00;;;6.30;77.30;;;;;;5029006;28;20237;-71
2024/02/14 02:02:41;;;;;;;7.83;3.43;;;6.30;77.40;;;;;;5026632;28;20419;-73
2024/02/14 02:05:07;;;;;;;6.73;4.20;;;6.30;77.60;;;;;;5024535;28;20485;-71
2024/02/14 02:07:33;;;;;;;9.13;4.13;;;6.20;78.00;;;;;;5031795;28;20766;-72
2024/02/14 02:09:59;;;;;;;7.50;3.80;;;6.20;78.10;;;;;;5034200;28;20196;-73
2024/02/14 02:12:27;;;;;;;5.17;3.40;;;6.30;78.10;;;;;;5028163;28;20439;-72
2024/02/14 02:14:53;;;;;;;9.07;3.80;;;6.20;78.10;;;;;;5029391;28;20192;-70
2024/02/14 02:17:18;;;;;;;6.50;4.20;;;6.20;78.40;;;;;;5021976;28;20987;-71
2024/02/14 02:19:44;;;;;;;7.13;3.60;;;6.20;78.40;;;;;;5028299;28;20484;-71
2024/02/14 02:22:10;;;;;;;13.47;3.93;;;6.30;78.30;;;;;;5020671;28;20201;-71
2024/02/14 02:24:35;;;;;;;6.70;3.90;;;6.30;78.10;;;;;;5024324;28;20189;-70
2024/02/14 02:27:03;;;;;;;11.13;4.60;;;6.40;77.70;;;;;;5023201;28;20199;-70
2024/02/14 02:29:28;;;;;;;7.57;3.80;;;6.50;77.70;;;;;;5028291;28;20193;-70
2024/02/14 02:31:54;;;;;;;7.90;3.70;;;6.50;77.70;;;;;;5027805;28;20479;-71
2024/02/14 02:34:20;;;;;;;6.03;3.77;;;6.50;77.70;;;;;;5019355;28;20650;-71
2024/02/14 02:36:45;;;;;;;6.80;4.03;;;6.60;77.70;;;;;;5028304;28;20270;-70
2024/02/14 02:39:14;;;;;;;5.73;3.83;;;6.60;77.70;;;;;;5028497;28;20243;-70
2024/02/14 02:41:39;;;;;;;6.17;3.90;;;6.70;77.60;;;;;;5024749;28;20217;-70
2024/02/14 02:44:06;;;;;;;7.60;3.90;;;6.70;77.10;;;;;;5023459;28;20588;-71
2024/02/14 02:46:32;;;;;;;7.93;4.10;;;6.70;77.30;;;;;;5028606;28;20982;-71
2024/02/14 02:48:58;;;;;;;9.30;4.13;;;6.80;77.10;;;;;;5027752;28;20450;-71
2024/02/14 02:51:24;;;;;;;7.67;4.13;;;6.70;77.10;;;;;;5018900;28;20217;-71
2024/02/14 02:53:51;;;;;;;7.87;3.90;;;6.70;77.40;;;;;;5019580;28;20415;-71
2024/02/14 02:56:21;;;;;;;6.67;4.30;;;6.70;77.60;;;;;;5027375;28;20173;-72
2024/02/14 02:58:48;;;;;;;6.30;4.00;;;6.70;77.70;;;;;;5027304;28;20432;-70
2024/02/14 03:01:14;;;;;;;6.97;4.60;;;6.70;77.70;;;;;;5023298;28;20545;-74
2024/02/14 03:03:41;;;;;;;6.93;4.27;;;6.80;77.60;;;;;;5021554;28;20417;-71
2024/02/14 03:06:07;;;;;;;6.57;4.47;;;6.80;77.30;;;;;;5027213;28;20232;-72
2024/02/14 03:08:34;;;;;;;8.33;3.90;;;6.90;77.30;;;;;;5031755;28;21038;-71
2024/02/14 03:11:05;;;;;;;8.50;4.30;;;6.90;77.10;;;;;;5024563;28;20464;-71
2024/02/14 03:13:31;;;;;;;6.27;3.40;;;7.00;77.10;;;;;;5027884;28;20423;-72
2024/02/14 03:15:58;;;;;;;8.77;5.13;;;7.00;77.10;;;;;;5032085;28;20420;-72
2024/02/14 03:18:24;;;;;;;9.47;4.10;;;7.10;76.80;;;;;;5031785;28;20186;-73
2024/02/14 03:20:50;;;;;;;7.43;4.67;;;7.00;76.40;;;;;;5027777;28;21026;-72
2024/02/14 03:23:16;;;;;;;7.13;4.17;;;6.90;75.80;;;;;;5025257;28;20545;-72
2024/02/14 03:25:42;;;;;;;5.10;4.00;;;6.80;76.10;;;;;;5026237;28;20643;-73
2024/02/14 03:28:08;;;;;;;7.13;3.70;;;6.70;76.40;;;;;;5031221;28;20415;-70
2024/02/14 03:30:34;;;;;;;6.10;4.17;;;6.70;76.80;;;;;;5028115;28;20464;-71
2024/02/14 03:33:01;;;;;;;9.50;4.23;;;6.80;76.70;;;;;;5025047;28;20467;-71
2024/02/14 03:35:26;;;;;;;8.40;4.40;;;6.90;75.80;;;;;;5028720;28;20416;-71
2024/02/14 03:37:53;;;;;;;6.67;4.40;;;6.90;75.90;;;;;;5031597;28;20940;-71
2024/02/14 03:40:22;;;;;;;7.00;4.30;;;6.80;76.20;;;;;;5025378;28;20205;-71
2024/02/14 03:42:48;;;;;;;9.20;4.50;;;6.70;76.70;;;;;;5028410;28;20424;-71
2024/02/14 03:45:14;;;;;;;9.60;4.00;;;6.70;77.10;;;;;;5026194;28;20792;-72
2024/02/14 03:47:40;;;;;;;8.77;3.87;;;6.70;77.00;;;;;;5032036;28;20442;-73
2024/02/14 03:50:06;;;;;;;9.73;3.93;;;6.60;77.00;;;;;;5031258;28;20574;-74
2024/02/14 03:52:32;;;;;;;8.87;3.80;;;6.60;77.40;;;;;;5044224;28;20439;-73
2024/02/14 03:54:59;;;;;;;5.33;3.73;;;6.70;77.30;;;;;;5023897;28;20535;-73
2024/02/14 03:57:28;;;;;;;8.93;4.17;;;6.70;77.30;;;;;;5013302;28;20482;-73
2024/02/14 03:59:54;;;;;;;6.83;4.20;;;6.70;77.40;;;;;;5030772;28;20472;-71
2024/02/14 04:02:20;;;;;;;7.03;3.97;;;6.70;77.40;;;;;;5017171;28;21031;-72
2024/02/14 04:04:46;;;;;;;10.23;3.73;;;6.70;77.40;;;;;;5028039;28;20519;-72
2024/02/14 04:07:12;;;;;;;10.60;3.93;;;6.70;77.30;;;;;;5031271;28;20223;-72
2024/02/14 04:09:38;;;;;;;6.60;3.87;;;6.60;77.70;;;;;;5029267;28;20420;-72
2024/02/14 04:12:04;;;;;;;6.83;3.80;;;6.70;77.40;;;;;;5017846;28;20213;-71
2024/02/14 04:14:29;;;;;;;9.87;4.50;;;6.60;77.10;;;;;;5028107;28;20197;-71
2024/02/14 04:16:55;;;;;;;6.73;4.07;;;6.70;77.60;;;;;;5030897;28;20427;-72
2024/02/14 04:19:21;;;;;;;7.57;4.43;;;6.70;77.60;;;;;;5030227;28;20249;-71
2024/02/14 04:21:47;;;;;;;5.90;3.70;;;6.70;77.60;;;;;;5021693;28;20205;-71
2024/02/14 04:24:12;;;;;;;9.20;4.70;;;6.70;77.40;;;;;;5031249;28;20964;-72
2024/02/14 04:26:38;;;;;;;7.60;4.30;;;6.70;77.40;;;;;;5032942;28;20427;-71
2024/02/14 04:29:04;;;;;;;5.90;3.70;;;6.70;77.10;;;;;;5030842;28;20189;-72
2024/02/14 04:31:31;;;;;;;7.93;3.70;;;6.70;76.70;;;;;;5028629;28;20770;-72
2024/02/14 04:33:57;;;;;;;10.00;4.50;;;6.70;76.70;;;;;;5028719;28;20181;-71
2024/02/14 04:36:23;;;;;;;7.63;3.37;;;6.80;76.40;;;;;;5030756;28;20419;-72
2024/02/14 04:38:49;;;;;;;8.90;4.13;;;6.90;75.80;;;;;;5025196;28;20963;-77
2024/02/14 04:41:15;;;;;;;6.20;3.80;;;6.90;75.40;;;;;;5025942;28;20593;-72
2024/02/14 04:43:41;;;;;;;7.73;3.80;;;6.90;75.70;;;;;;5023798;28;20428;-70
2024/02/14 04:46:08;;;;;;;10.20;4.30;;;7.00;75.40;;;;;;5030657;28;20420;-71
2024/02/14 04:48:37;;;;;;;6.60;3.60;;;7.10;75.20;;;;;;5030583;28;20845;-71
2024/02/14 04:51:04;;;;;;;6.30;3.80;;;7.00;74.80;;;;;;5026168;28;20988;-72
2024/02/14 04:53:33;;;;;;;7.60;4.57;;;7.00;74.80;;;;;;5017094;28;20491;-72
2024/02/14 04:55:59;;;;;;;8.53;3.57;;;7.10;74.90;;;;;;5026840;28;20422;-71
2024/02/14 04:58:26;;;;;;;6.10;3.30;;;7.10;74.20;;;;;;5029659;28;20424;-71
2024/02/14 05:00:52;;;;;;;8.00;3.87;;;7.10;73.70;;;;;;5026257;28;20534;-72
2024/02/14 05:03:18;;;;;;;11.27;3.60;;;7.20;73.50;;;;;;5019418;28;20420;-72
2024/02/14 05:05:44;;;;;;;8.03;3.40;;;7.20;73.30;;;;;;5026970;28;20478;-71
2024/02/14 05:08:09;;;;;;;5.10;3.27;;;7.30;71.80;;;;;;5030125;28;20458;-73
2024/02/14 05:10:35;;;;;;;5.57;3.00;;;7.40;71.80;;;;;;5026536;28;20210;-72
2024/02/14 05:13:01;;;;;;;5.23;3.33;;;7.50;71.40;;;;;;5023820;28;20251;-72
2024/02/14 05:15:26;;;;;;;7.13;3.07;;;7.60;71.60;;;;;;5027479;28;20236;-72
2024/02/14 05:17:52;;;;;;;6.27;3.50;;;7.50;71.10;;;;;;5029670;28;20654;-72
2024/02/14 05:20:18;;;;;;;5.87;3.30;;;7.60;71.00;;;;;;5027078;28;20779;-73
2024/02/14 05:22:44;;;;;;;7.13;3.67;;;7.70;70.40;;;;;;5018286;28;20344;-73
2024/02/14 05:25:10;;;;;;;8.00;3.83;;;7.60;70.50;;;;;;5030228;28;20190;-71
2024/02/14 05:27:36;;;;;;;5.30;3.43;;;7.60;70.80;;;;;;5029222;28;20424;-72
2024/02/14 05:30:05;;;;;;;4.77;2.77;;;7.70;71.00;;;;;;5028869;28;20446;-73
2024/02/14 05:32:35;;;;;;;9.10;3.40;;;7.80;70.70;;;;;;5026139;28;20455;-71
2024/02/14 05:35:01;;;;;;;5.83;3.10;;;7.80;70.10;;;;;;5019216;28;20451;-72
2024/02/14 05:37:27;;;;;;;6.03;3.70;;;7.70;70.50;;;;;;5029014;28;20420;-72
2024/02/14 05:39:53;;;;;;;5.63;3.70;;;7.60;70.70;;;;;;5027337;28;20914;-72
2024/02/14 05:42:19;;;;;;;5.97;2.90;;;7.50;70.80;;;;;;5026152;28;20470;-71
2024/02/14 05:44:44;;;;;;;17.40;4.00;;;7.50;71.10;;;;;;5029093;28;20538;-72
2024/02/14 05:47:11;;;;;;;4.87;2.93;;;7.60;71.30;;;;;;5030625;28;20184;-72
2024/02/14 05:49:39;;;;;;;7.33;3.10;;;7.60;70.80;;;;;;5029695;28;20189;-72
2024/02/14 05:52:05;;;;;;;4.13;2.60;;;7.70;70.80;;;;;;5024743;28;20492;-72
2024/02/14 05:54:31;;;;;;;6.10;2.70;;;7.70;70.20;;;;;;5023260;28;20424;-72
2024/02/14 05:56:57;;;;;;;5.13;3.10;;;7.60;70.10;;;;;;5032189;28;20948;-72
2024/02/14 05:59:23;;;;;;;4.90;2.97;;;7.60;70.10;;;;;;5032686;28;20184;-72
2024/02/14 06:01:49;;;;;;;5.63;2.93;;;7.70;70.10;;;;;;5025953;28;20464;-70
2024/02/14 06:04:14;;;;;;;6.63;3.40;;;7.70;70.50;;;;;;5025140;28;20189;-71
2024/02/14 06:06:40;;;;;;;8.27;3.30;;;7.70;70.70;;;;;;5029291;28;20204;-71
2024/02/14 06:09:09;;;;;;;12.23;8.80;;;7.70;70.20;;;;;;5028265;28;20666;-71
2024/02/14 06:11:38;;;;;;;5.17;3.43;;;7.60;70.40;;;;;;5026324;28;20208;-72
2024/02/14 06:14:07;;;;;;;4.27;3.00;;;7.50;70.40;;;;;;5025090;28;20433;-73
2024/02/14 06:16:33;;;;;;;6.30;3.00;;;7.50;70.80;;;;;;5030636;28;20419;-71
2024/02/14 06:18:59;;;;;;;5.27;2.73;;;7.50;70.50;;;;;;5028763;28;20439;-72
2024/02/14 06:21:26;;;;;;;7.33;3.10;;;7.40;71.00;;;;;;5026392;28;20479;-71
2024/02/14 06:23:52;;;;;;;6.03;3.10;;;7.50;71.00;;;;;;5022994;28;21058;-71
2024/02/14 06:26:17;;;;;;;7.27;3.80;;;7.50;70.20;;;;;;5029272;28;20509;-73
2024/02/14 06:28:44;;;;;;;6.80;3.20;;;7.40;70.80;;;;;;5028746;28;20658;-71
2024/02/14 06:31:09;;;;;;;5.80;3.30;;;7.40;71.00;;;;;;5024276;28;20224;-69
2024/02/14 06:33:36;;;;;;;9.20;3.33;;;7.30;71.10;;;;;;5020650;28;20994;-72
2024/02/14 06:36:02;;;;;;;6.20;3.50;;;7.30;71.40;;;;;;5031625;28;20523;-74
2024/02/14 06:38:27;;;;;;;7.23;3.07;;;7.40;71.60;;;;;;5041977;28;20478;-72
2024/02/14 06:40:53;;;;;;;7.77;3.30;;;7.50;71.00;;;;;;5029507;28;20519;-71
2024/02/14 06:43:19;;;;;;;4.93;3.33;;;7.50;70.70;;;;;;5026469;28;20219;-73
2024/02/14 06:45:45;;;;;;;6.73;3.30;;;7.40;70.80;;;;;;5032226;28;20208;-72
2024/02/14 06:48:11;;;;;;;4.47;2.67;;;7.40;71.00;;;;;;5032951;28;20428;-72
2024/02/14 06:50:36;;;;;;;5.17;3.63;;;7.50;70.70;;;;;;5027042;28;20201;-72
2024/02/14 06:53:02;;;;;;;3.60;2.53;;;7.50;70.70;;;;;;5031656;28;20727;-73
2024/02/14 06:55:28;;;;;;;10.40;3.47;;;7.60;70.50;;;;;;5036936;28;20185;-71
2024/02/14 06:57:54;;;;;;;8.23;2.87;;;7.60;70.50;;;;;;5033445;28;20280;-71
2024/02/14 07:00:20;;;;;;;4.27;2.77;;;7.70;70.20;;;;;;5027006;28;20525;-71
2024/02/14 07:02:48;;;;;;;8.67;2.90;;;7.90;69.70;;;;;;5032966;28;20374;-71
2024/02/14 07:05:14;;;;;;;4.67;2.63;;;7.90;69.50;;;;;;5029601;28;20851;-71
2024/02/14 07:07:40;;;;;;;5.63;2.60;;;8.00;69.50;;;;;;5034080;28;20432;-72
2024/02/14 07:10:07;;;;;;;6.00;2.50;;;8.00;69.50;;;;;;5032830;28;20424;-71
2024/02/14 07:12:32;;;;;;;5.33;2.90;;;8.10;69.20;;;;;;5029629;28;20839;-72
2024/02/14 07:14:58;;;;;;;5.03;2.90;;;8.00;69.50;;;;;;5027283;28;20423;-71
2024/02/14 07:17:23;;;;;;;3.60;2.20;;;8.00;69.40;;;;;;5032097;28;20181;-72
2024/02/14 07:19:49;;;;;;;3.70;2.33;;;8.10;69.50;;;;;;5032007;28;20711;-71
2024/02/14 07:22:17;;;;;;;4.33;2.50;;;8.20;69.20;;;;;;5028800;28;20205;-72
2024/02/14 07:24:43;;;;;;;10.30;3.87;;;8.20;69.40;;;;;;5022828;28;20558;-72
2024/02/14 07:27:09;;;;;;;4.93;2.67;;;8.20;69.20;;;;;;5031534;28;20938;-73
2024/02/14 07:29:35;;;;;;;7.63;2.57;;;8.30;69.20;;;;;;5031352;28;20444;-70
2024/02/14 07:32:02;;;;;;;5.77;2.97;;;8.30;69.40;;;;;;5023891;28;20216;-71
2024/02/14 07:34:28;;;;;;;5.13;2.70;;;8.30;69.50;;;;;;5022486;28;20807;-71
2024/02/14 07:36:53;;;;;;;7.77;2.67;;;8.30;69.50;;;;;;5031937;28;20515;-72
2024/02/14 07:39:19;;;;;;;4.77;2.80;;;8.40;69.70;;;;;;5031393;28;20197;-73
2024/02/14 07:41:44;;;;;;;6.03;2.90;;;8.40;69.70;;;;;;5028006;28;20269;-72
2024/02/14 07:44:10;;;;;;;7.23;3.23;;;8.30;69.70;;;;;;5028288;28;20725;-73
2024/02/14 07:46:36;;;;;;;5.40;3.47;;;8.30;69.70;;;;;;5033020;28;20200;-71
2024/02/14 07:49:01;;;;;;;8.93;3.57;;;8.40;69.80;;;;;;5031707;28;20672;-72
2024/02/14 07:51:28;;;;;;;6.37;3.17;;;8.50;69.50;;;;;;5022298;28;20216;-72
2024/02/14 07:53:54;;;;;;;13.80;5.50;;;8.50;69.50;;;;;;5021305;28;20264;-71
2024/02/14 07:56:20;;;;;;;8.67;3.80;;;8.50;69.40;;;;;;5031154;28;20592;-71
2024/02/14 07:58:45;;;;;;;8.37;3.00;;;8.60;69.20;;;;;;5030722;28;20560;-71
2024/02/14 08:01:11;;;;;;;11.17;2.97;;;8.70;69.40;;;;;;5023121;28;20637;-71
2024/02/14 08:03:37;;;;;;;5.23;2.63;;;8.70;69.40;;;;;;5025505;28;20190;-71
2024/02/14 08:06:02;;;;;;;4.93;2.80;;;8.80;69.10;;;;;;5030640;28;20231;-70
2024/02/14 08:08:28;;;;;;;5.47;3.00;;;9.00;68.80;;;;;;5030752;28;20216;-72
2024/02/14 08:10:54;;;;;;;7.70;2.67;;;9.10;68.30;;;;;;5024112;28;20701;-72
2024/02/14 08:13:20;;;;;;;8.23;2.70;;;9.20;67.90;;;;;;5026405;28;20268;-72
2024/02/14 08:15:46;;;;;;;4.60;2.77;;;9.30;68.20;;;;;;5024983;28;21632;-72
2024/02/14 08:18:12;;;;;;;6.13;3.20;;;9.40;68.30;;;;;;5030586;28;20230;-71
2024/02/14 08:20:38;;;;;;;8.87;3.73;;;9.40;68.00;;;;;;5027606;28;20217;-73
2024/02/14 08:23:04;;;;;;;10.40;4.87;;;9.30;67.90;;;;;;5028752;28;20971;-71
2024/02/14 08:25:29;;;;;;;10.30;4.80;;;9.30;68.20;;;;;;5026661;28;20189;-71
2024/02/14 08:27:56;;;;;;;10.90;3.93;;;9.30;68.00;;;;;;5030320;28;20465;-72
2024/02/14 08:30:21;;;;;;;10.63;4.90;;;9.30;68.20;;;;;;5027661;28;20555;-72
2024/02/14 08:32:47;;;;;;;11.87;5.70;;;9.20;68.50;;;;;;5027030;28;20448;-72
2024/02/14 08:35:13;;;;;;;12.17;5.77;;;9.20;68.90;;;;;;5024696;28;20276;-71
2024/02/14 08:37:40;;;;;;;8.53;4.93;;;9.20;69.10;;;;;;5030372;28;20185;-71
2024/02/14 08:40:06;;;;;;;12.83;6.00;;;9.40;69.10;;;;;;5026662;28;20467;-72
2024/02/14 08:42:34;;;;;;;13.57;6.57;;;9.70;68.50;;;;;;5028401;28;20525;-71
2024/02/14 08:44:59;;;;;;;21.67;6.20;;;9.80;68.30;;;;;;5026727;28;20420;-72
2024/02/14 08:47:26;;;;;;;15.07;7.00;;;10.00;68.20;;;;;;5029230;28;20440;-72
2024/02/14 08:49:51;;;;;;;12.17;7.00;;;9.90;67.90;;;;;;5029946;28;20192;-71
2024/02/14 08:52:18;;;;;;;14.53;6.60;;;10.10;68.00;;;;;;5032492;28;20459;-71
2024/02/14 08:54:44;;;;;;;24.60;8.90;;;10.30;67.70;;;;;;5025428;28;20197;-71
2024/02/14 08:57:09;;;;;;;17.63;8.20;;;10.40;67.60;;;;;;5030545;28;20482;-72
2024/02/14 08:59:35;;;;;;;20.70;7.10;;;10.40;67.50;;;;;;5030069;28;20562;-71
2024/02/14 09:02:01;;;;;;;19.73;7.10;;;10.40;67.20;;;;;;5021880;28;20202;-72
2024/02/14 09:04:27;;;;;;;10.83;7.10;;;10.40;66.90;;;;;;5027042;28;20693;-73
2024/02/14 09:06:53;;;;;;;14.23;6.60;;;10.40;66.90;;;;;;5029555;28;20514;-72
2024/02/14 09:09:19;;;;;;;20.60;7.13;;;10.50;67.20;;;;;;5029976;28;20518;-72
2024/02/14 09:11:46;;;;;;;16.67;8.17;;;10.40;66.70;;;;;;5019895;28;20300;-72
2024/02/14 09:14:12;;;;;;;13.60;6.77;;;10.40;67.20;;;;;;5027113;28;20432;-72
2024/02/14 09:16:38;;;;;;;13.27;6.03;;;10.40;67.20;;;;;;5029651;28;20430;-72
2024/02/14 09:19:07;;;;;;;19.10;6.97;;;10.40;66.70;;;;;;5027193;28;20567;-71
2024/02/14 09:21:36;;;;;;;12.10;5.90;;;10.40;67.00;;;;;;5018528;28;20487;-72
2024/02/14 09:24:02;;;;;;;14.33;6.37;;;10.30;67.30;;;;;;5026142;28;20462;-71
2024/02/14 09:26:29;;;;;;;6.77;3.10;;;10.30;67.30;;;;;;5029032;28;21130;-72
2024/02/14 09:28:55;;;;;;;5.43;3.23;;;10.40;67.20;;;;;;5029267;28;20428;-71
2024/02/14 09:31:21;;;;;;;3.20;2.27;;;10.70;66.30;;;;;;5027252;28;20972;-71
2024/02/14 09:33:48;;;;;;;8.10;2.40;;;10.80;66.00;;;;;;5029726;28;20527;-71
2024/02/14 09:36:16;;;;;;;4.33;2.13;;;11.00;65.60;;;;;;5029422;28;21050;-72
2024/02/14 09:38:42;;;;;;;5.20;1.80;;;11.10;65.30;;;;;;5029286;28;20423;-71
2024/02/14 09:41:37;;;;;;;2.37;1.77;;;11.10;65.30;;;;;;5027675;28;20494;-73
2024/02/14 09:44:03;;;;;;;9.07;2.37;;;11.10;65.30;;;;;;5028797;28;20420;-72
2024/02/14 09:46:32;;;;;;;2.60;1.90;;;11.00;65.30;;;;;;5029205;28;20519;-71
2024/02/14 09:49:01;;;;;;;3.90;1.77;;;11.00;65.40;;;;;;5026130;28;20429;-71
2024/02/14 09:51:29;;;;;;;3.33;2.10;;;11.10;65.60;;;;;;5027017;28;20463;-72
2024/02/14 09:53:55;;;;;;;6.60;1.93;;;11.10;65.70;;;;;;5020072;28;20424;-72
2024/02/14 09:56:23;;;;;;;3.10;1.77;;;11.10;65.70;;;;;;5028950;28;20920;-72
2024/02/14 09:58:55;;;;;;;6.90;1.80;;;11.10;65.70;;;;;;5029412;28;20189;-72
2024/02/14 10:01:25;;;;;;;2.97;1.83;;;11.10;66.00;;;;;;5025801;28;20570;-71
2024/02/14 10:03:51;;;;;;;4.40;1.90;;;11.10;66.10;;;;;;5019694;28;20418;-71
2024/02/14 10:06:21;;;;;;;5.10;1.90;;;11.20;66.30;;;;;;5028840;28;20823;-71
2024/02/14 10:08:50;;;;;;;7.50;2.07;;;11.30;66.30;;;;;;5029696;28;20557;-71
2024/02/14 10:11:17;;;;;;;2.80;1.97;;;11.30;66.30;;;;;;5024320;28;20859;-71
2024/02/14 10:13:46;;;;;;;3.10;1.80;;;11.40;66.30;;;;;;5028738;28;20435;-71
2024/02/14 10:16:12;;;;;;;2.73;1.80;;;11.50;66.10;;;;;;5034695;28;20437;-73
2024/02/14 10:18:39;;;;;;;3.07;1.80;;;11.60;66.30;;;;;;5035425;28;20996;-72
2024/02/14 10:21:04;;;;;;;2.90;2.00;;;11.60;66.60;;;;;;5029928;28;20491;-71
2024/02/14 10:23:30;;;;;;;7.60;1.80;;;11.70;66.40;;;;;;5025558;28;20474;-71
2024/02/14 10:25:56;;;;;;;6.33;1.80;;;11.80;66.60;;;;;;5032894;28;20263;-71
2024/02/14 10:28:23;;;;;;;3.10;1.60;;;11.80;66.70;;;;;;5033707;28;20484;-72
2024/02/14 10:30:51;;;;;;;3.83;1.60;;;11.80;67.50;;;;;;5033516;28;20483;-72
2024/02/14 10:33:19;;;;;;;13.87;1.90;;;11.80;67.50;;;;;;5030711;28;20443;-71
2024/02/14 10:35:46;;;;;;;4.90;1.60;;;11.80;67.70;;;;;;5032754;28;20446;-71
2024/02/14 10:38:12;;;;;;;3.63;1.80;;;11.90;67.90;;;;;;5036734;28;20428;-72
2024/02/14 10:40:38;;;;;;;3.00;1.60;;;12.00;67.90;;;;;;5031749;28;20552;-72
2024/02/14 10:43:10;;;;;;;4.00;1.70;;;12.00;67.90;;;;;;5025145;28;20460;-71
2024/02/14 10:45:39;;;;;;;4.13;1.40;;;12.10;67.70;;;;;;5030599;28;20473;-72
2024/02/14 10:48:06;;;;;;;5.33;1.43;;;12.30;67.50;;;;;;5023831;28;20475;-71
2024/02/14 10:50:37;;;;;;;10.83;1.70;;;12.50;67.00;;;;;;5027070;28;22029;-72
2024/02/14 10:53:09;;;;;;;3.23;1.57;;;12.80;66.40;;;;;;5031171;28;20427;-71
2024/02/14 10:55:36;;;;;;;2.50;1.57;;;13.00;65.70;;;;;;5025002;28;20470;-72
2024/02/14 10:58:03;;;;;;;2.60;1.63;;;13.20;65.40;;;;;;5033499;28;20808;-71
2024/02/14 11:00:29;;;;;;;3.70;1.67;;;13.40;65.00;;;;;;5028019;28;20565;-72
2024/02/14 11:02:55;;;;;;;3.97;1.73;;;13.60;64.80;;;;;;5028809;28;20494;-72
2024/02/14 11:05:25;;;;;;;3.67;1.40;;;13.90;64.10;;;;;;5030389;28;20416;-71
2024/02/14 11:07:52;;;;;;;4.97;1.70;;;14.10;63.90;;;;;;5038128;28;20177;-73
2024/02/14 11:10:20;;;;;;;4.47;1.70;;;14.10;63.80;;;;;;5029705;28;20992;-72
2024/02/14 11:12:49;;;;;;;8.77;1.80;;;14.00;64.10;;;;;;5030524;28;20415;-73
2024/02/14 11:15:19;;;;;;;2.90;1.30;;;13.50;65.40;;;;;;5028314;28;20424;-73
2024/02/14 11:17:46;;;;;;;3.53;1.50;;;13.20;66.40;;;;;;5026857;28;20455;-72
2024/02/14 11:20:31;;;;;;;1.80;1.43;;;13.20;66.90;;;;;;5026775;28;20467;-72
2024/02/14 11:23:03;;;;;;;4.30;1.70;;;13.10;67.30;;;;;;5021671;28;20424;-73
2024/02/14 11:25:31;;;;;;;3.23;1.40;;;13.10;67.60;;;;;;5029211;28;20753;-73
2024/02/14 11:28:05;;;;;;;3.50;1.43;;;13.10;67.50;;;;;;5025262;28;20424;-72
2024/02/14 11:30:35;;;;;;;2.43;1.70;;;13.20;67.60;;;;;;5025638;28;20513;-73
2024/02/14 11:33:23;;;;;;;3.00;1.20;;;13.20;67.60;;;;;;5016434;28;20482;-72
2024/02/14 11:35:53;;;;;;;2.93;1.30;;;13.30;67.50;;;;;;5026848;28;20428;-71
2024/02/14 11:38:26;;;;;;;3.20;1.30;;;13.30;67.50;;;;;;5033196;28;20468;-71
2024/02/14 11:40:56;;;;;;;1.93;1.40;;;13.10;67.90;;;;;;5025435;28;20483;-73
2024/02/14 11:43:22;;;;;;;5.87;1.57;;;13.10;68.20;;;;;;5024153;28;20992;-72
2024/02/14 11:45:49;;;;;;;2.57;1.47;;;13.20;68.00;;;;;;5032082;28;20432;-72
2024/02/14 11:48:16;;;;;;;5.37;1.20;;;13.30;67.90;;;;;;5030067;28;20424;-72
2024/02/14 11:50:44;;;;;;;2.00;1.50;;;13.10;68.00;;;;;;5027164;28;21059;-73
2024/02/14 11:53:11;;;;;;;15.27;1.70;;;13.10;68.30;;;;;;5027155;28;20432;-72
2024/02/14 11:55:41;;;;;;;5.73;1.40;;;13.10;68.20;;;;;;5031462;28;20469;-72
2024/02/14 11:58:14;;;;;;;3.20;1.40;;;13.20;68.20;;;;;;5028960;28;20420;-72
2024/02/14 12:00:40;;;;;;;2.90;1.50;;;13.10;68.20;;;;;;5029829;28;20532;-73
2024/02/14 12:03:20;;;;;;;2.53;1.50;;;13.10;68.20;;;;;;5033295;28;20428;-72
2024/02/14 12:05:51;;;;;;;3.90;1.80;;;13.10;68.50;;;;;;5031136;28;20435;-72
2024/02/14 12:08:18;;;;;;;2.80;1.60;;;13.30;68.30;;;;;;5030934;28;20428;-73
2024/02/14 12:10:49;;;;;;;4.83;1.97;;;13.40;67.90;;;;;;5028025;28;20487;-72
2024/02/14 12:13:16;;;;;;;4.37;2.00;;;13.50;67.70;;;;;;5030199;28;20412;-73
2024/02/14 12:15:45;;;;;;;2.57;1.90;;;13.70;67.30;;;;;;5029609;28;20432;-71
2024/02/14 12:18:11;;;;;;;2.20;1.40;;;13.80;67.00;;;;;;5030221;28;20788;-72
2024/02/14 12:20:37;;;;;;;3.17;1.40;;;13.80;66.60;;;;;;5026526;28;20483;-74
2024/02/14 12:23:05;;;;;;;2.47;1.30;;;13.60;66.70;;;;;;5029196;28;20555;-72
2024/02/14 12:25:31;;;;;;;2.33;1.37;;;13.50;67.50;;;;;;5025769;28;20573;-73
2024/02/14 12:28:03;;;;;;;1.80;1.20;;;13.60;67.50;;;;;;5030989;28;20424;-72
2024/02/14 12:30:45;;;;;;;2.57;1.27;;;13.60;67.20;;;;;;5028120;28;20460;-73
2024/02/14 12:33:11;;;;;;;2.07;1.20;;;13.70;67.00;;;;;;5013490;28;20494;-72
2024/02/14 12:35:41;;;;;;;2.40;1.30;;;13.60;67.30;;;;;;5028085;28;20881;-73
2024/02/14 12:38:09;;;;;;;2.70;1.03;;;13.70;67.00;;;;;;5029894;28;20809;-73
2024/02/14 12:40:36;;;;;;;1.47;1.17;;;13.60;67.00;;;;;;5027284;28;20516;-72
2024/02/14 12:43:01;;;;;;;4.00;1.60;;;13.60;67.20;;;;;;5022690;28;20434;-72
2024/02/14 12:45:27;;;;;;;1.63;1.10;;;13.70;67.00;;;;;;5029889;28;20440;-72
2024/02/14 12:47:53;;;;;;;2.30;1.37;;;13.80;67.00;;;;;;5029856;28;20181;-72
2024/02/14 12:50:21;;;;;;;5.10;1.23;;;14.00;66.90;;;;;;5026563;28;20242;-71